createdAt,value
2019-03-03T00:01:14.114Z,10.40
2019-03-03T00:03:42.945Z,10.40
2019-03-03T00:06:11.805Z,10.40
2019-03-03T00:08:40.771Z,10.40
2019-03-03T00:11:09.560Z,10.40
2019-03-03T00:13:38.397Z,10.50
2019-03-03T00:16:07.257Z,10.50
2019-03-03T00:18:36.109Z,10.50
2019-03-03T00:21:05.001Z,10.50
2019-03-03T00:23:33.787Z,10.60
2019-03-03T00:26:02.592Z,10.60
2019-03-03T00:28:31.537Z,10.60
2019-03-03T00:31:00.363Z,10.60
2019-03-03T00:33:29.154Z,10.60
2019-03-03T00:35:57.950Z,10.70
2019-03-03T00:38:46.069Z,10.60
2019-03-03T00:41:23.659Z,10.70
2019-03-03T00:44:05.128Z,10.60
2019-03-03T00:46:51.793Z,10.60
2019-03-03T00:49:45.813Z,10.60
2019-03-03T00:52:20.687Z,10.60
2019-03-03T00:55:03.135Z,10.60
2019-03-03T00:57:43.214Z,10.60
2019-03-03T01:00:38.083Z,10.50
2019-03-03T01:03:26.102Z,10.60
2019-03-03T01:06:07.228Z,10.50
2019-03-03T01:08:44.741Z,10.60
2019-03-03T01:11:35.844Z,10.50
2019-03-03T01:14:18.853Z,10.50
2019-03-03T01:16:55.847Z,10.50
2019-03-03T01:19:30.663Z,10.50
2019-03-03T01:22:11.446Z,10.40
2019-03-03T01:25:11.776Z,10.50
2019-03-03T01:27:40.670Z,10.50
2019-03-03T01:30:11.581Z,10.50
2019-03-03T01:32:40.598Z,10.50
2019-03-03T01:35:09.830Z,10.50
2019-03-03T01:37:38.893Z,10.50
2019-03-03T01:40:09.400Z,10.50
2019-03-03T01:42:38.213Z,10.60
2019-03-03T01:45:08.769Z,10.60
2019-03-03T01:47:37.602Z,10.60
2019-03-03T01:50:07.760Z,10.50
2019-03-03T01:52:36.638Z,10.60
2019-03-03T01:55:06.162Z,10.60
2019-03-03T01:57:35.025Z,10.60
2019-03-03T02:00:05.447Z,10.70
2019-03-03T02:02:34.236Z,10.70
2019-03-03T02:05:03.127Z,10.70
2019-03-03T02:07:31.939Z,10.70
2019-03-03T02:10:00.837Z,10.70
2019-03-03T02:12:29.906Z,10.70
2019-03-03T02:14:58.697Z,10.70
2019-03-03T02:17:27.494Z,10.70
2019-03-03T02:19:56.463Z,10.70
2019-03-03T02:22:25.319Z,10.70
2019-03-03T02:24:54.125Z,10.70
2019-03-03T02:27:23.019Z,10.70
2019-03-03T02:29:51.948Z,10.70
2019-03-03T02:32:20.843Z,10.70
2019-03-03T02:34:49.645Z,10.70
2019-03-03T02:37:18.456Z,10.70
2019-03-03T02:39:47.303Z,10.70
2019-03-03T02:42:16.120Z,10.70
2019-03-03T02:44:45.727Z,10.70
2019-03-03T02:47:14.683Z,10.70
2019-03-03T02:49:43.814Z,10.70
2019-03-03T02:52:12.706Z,10.60
2019-03-03T02:54:41.632Z,10.60
2019-03-03T02:57:10.446Z,10.60
2019-03-03T02:59:39.433Z,10.60
2019-03-03T03:04:44.389Z,10.60
2019-03-03T03:07:32.628Z,10.60
2019-03-03T03:10:06.973Z,10.50
2019-03-03T03:12:55.149Z,10.50
2019-03-03T03:15:43.180Z,10.50
2019-03-03T03:18:20.310Z,10.40
2019-03-03T03:21:09.309Z,10.40
2019-03-03T03:23:44.596Z,10.30
2019-03-03T03:26:27.119Z,10.30
2019-03-03T03:29:15.203Z,10.30
2019-03-03T03:32:02.068Z,10.30
2019-03-03T03:34:39.144Z,10.40
2019-03-03T03:37:20.101Z,10.40
2019-03-03T03:40:09.478Z,10.40
2019-03-03T03:42:57.458Z,10.40
2019-03-03T03:45:48.120Z,10.40
2019-03-03T03:48:36.161Z,10.40
2019-03-03T03:51:42.144Z,10.30
2019-03-03T03:54:29.079Z,10.30
2019-03-03T03:57:17.126Z,10.30
2019-03-03T03:59:58.449Z,10.30
2019-03-03T04:02:45.277Z,10.20
2019-03-03T04:05:30.882Z,10.20
2019-03-03T04:08:13.468Z,10.20
2019-03-03T04:10:57.232Z,10.20
2019-03-03T04:13:54.357Z,10.20
2019-03-03T04:16:37.707Z,10.10
2019-03-03T04:19:29.039Z,10.10
2019-03-03T04:22:13.855Z,10.10
2019-03-03T04:25:05.676Z,10.10
2019-03-03T04:27:55.160Z,10.00
2019-03-03T04:30:41.874Z,10.00
2019-03-03T04:33:28.195Z,10.00
2019-03-03T04:36:06.488Z,10.00
2019-03-03T04:38:47.853Z,9.90
2019-03-03T04:41:35.771Z,9.90
2019-03-03T04:44:15.803Z,9.90
2019-03-03T04:47:09.905Z,9.90
2019-03-03T04:50:03.696Z,9.90
2019-03-03T04:52:57.717Z,9.90
2019-03-03T04:55:45.700Z,9.90
2019-03-03T04:58:22.044Z,9.90
2019-03-03T05:01:13.013Z,9.90
2019-03-03T05:03:56.207Z,9.90
2019-03-03T05:06:33.616Z,9.90
2019-03-03T05:09:10.065Z,9.80
2019-03-03T05:12:29.096Z,9.80
2019-03-03T05:15:04.099Z,9.80
2019-03-03T05:17:43.260Z,9.80
2019-03-03T05:20:12.520Z,9.80
2019-03-03T05:22:41.415Z,9.80
2019-03-03T05:25:10.421Z,9.80
2019-03-03T05:27:39.297Z,9.80
2019-03-03T05:30:08.569Z,9.80
2019-03-03T05:32:37.351Z,9.80
2019-03-03T05:35:06.502Z,9.80
2019-03-03T05:37:35.345Z,9.80
2019-03-03T05:40:04.631Z,9.80
2019-03-03T05:42:33.501Z,9.90
2019-03-03T05:45:02.318Z,9.90
2019-03-03T05:47:31.179Z,9.90
2019-03-03T05:50:00.028Z,9.90
2019-03-03T05:52:28.892Z,9.90
2019-03-03T05:54:57.766Z,9.90
2019-03-03T05:57:26.740Z,9.90
2019-03-03T05:59:55.554Z,9.90
2019-03-03T06:02:24.423Z,9.90
2019-03-03T06:04:53.336Z,9.90
2019-03-03T06:07:22.373Z,9.90
2019-03-03T06:09:52.491Z,9.90
2019-03-03T06:12:21.321Z,9.90
2019-03-03T06:14:50.228Z,9.90
2019-03-03T06:17:19.109Z,9.90
2019-03-03T06:19:48.200Z,9.90
2019-03-03T06:22:17.122Z,9.90
2019-03-03T06:24:45.971Z,9.90
2019-03-03T06:27:14.823Z,10.00
2019-03-03T06:29:43.797Z,10.00
2019-03-03T06:32:12.649Z,10.00
2019-03-03T06:34:41.609Z,10.00
2019-03-03T06:37:10.428Z,10.00
2019-03-03T06:39:39.482Z,10.00
2019-03-03T06:42:08.355Z,10.00
2019-03-03T06:44:37.142Z,10.00
2019-03-03T06:47:06.079Z,10.10
2019-03-03T06:49:35.106Z,10.10
2019-03-03T06:52:04.081Z,10.10
2019-03-03T06:54:32.893Z,10.10
2019-03-03T06:57:01.797Z,10.10
2019-03-03T06:59:30.785Z,10.10
2019-03-03T07:01:59.628Z,10.10
2019-03-03T07:04:28.427Z,10.10
2019-03-03T07:06:57.412Z,10.20
2019-03-03T07:09:27.394Z,10.20
2019-03-03T07:11:56.259Z,10.20
2019-03-03T07:14:25.162Z,10.20
2019-03-03T07:16:54.018Z,10.20
2019-03-03T07:19:23.981Z,10.20
2019-03-03T07:21:52.838Z,10.20
2019-03-03T07:24:21.662Z,10.20
2019-03-03T07:26:50.494Z,10.20
2019-03-03T07:29:19.717Z,10.20
2019-03-03T07:31:48.656Z,10.20
2019-03-03T07:34:17.511Z,10.20
2019-03-03T07:36:46.341Z,10.20
2019-03-03T07:39:17.530Z,10.20
2019-03-03T07:41:46.660Z,10.20
2019-03-03T07:44:15.580Z,10.20
2019-03-03T07:46:44.435Z,10.20
2019-03-03T07:49:13.481Z,10.20
2019-03-03T07:51:42.277Z,10.20
2019-03-03T07:54:11.110Z,10.20
2019-03-03T07:56:39.909Z,10.20
2019-03-03T07:59:08.914Z,10.10
2019-03-03T08:01:37.714Z,10.20
2019-03-03T08:04:06.711Z,10.20
2019-03-03T08:06:35.593Z,10.20
2019-03-03T08:09:06.538Z,10.20
2019-03-03T08:11:35.386Z,10.20
2019-03-03T08:14:04.327Z,10.20
2019-03-03T08:16:33.141Z,10.20
2019-03-03T08:19:03.011Z,10.30
2019-03-03T08:21:31.981Z,10.30
2019-03-03T08:24:00.831Z,10.30
2019-03-03T08:26:29.827Z,10.30
2019-03-03T08:28:58.891Z,10.30
2019-03-03T08:31:27.817Z,10.30
2019-03-03T08:33:56.727Z,10.30
2019-03-03T08:36:25.642Z,10.30
2019-03-03T08:38:54.631Z,10.30
2019-03-03T08:41:23.427Z,10.30
2019-03-03T08:44:02.928Z,10.30
2019-03-03T08:46:39.069Z,10.30
2019-03-03T08:49:15.975Z,10.30
2019-03-03T08:51:56.039Z,10.30
2019-03-03T08:54:51.352Z,10.30
2019-03-03T08:57:34.404Z,10.40
2019-03-03T09:00:18.302Z,10.40
2019-03-03T09:03:05.105Z,10.30
2019-03-03T09:05:43.846Z,10.40
2019-03-03T09:08:30.642Z,10.40
2019-03-03T09:11:17.031Z,10.40
2019-03-03T09:14:10.984Z,10.40
2019-03-03T09:17:08.073Z,10.40
2019-03-03T09:19:49.250Z,10.40
2019-03-03T09:22:29.949Z,10.40
2019-03-03T09:25:11.196Z,10.40
2019-03-03T09:27:50.200Z,10.50
2019-03-03T09:30:36.694Z,10.40
2019-03-03T09:33:23.665Z,10.50
2019-03-03T09:35:57.305Z,10.50
2019-03-03T09:38:46.629Z,10.60
2019-03-03T09:41:43.762Z,10.60
2019-03-03T09:44:26.917Z,10.60
2019-03-03T09:47:13.564Z,10.60
2019-03-03T09:50:00.322Z,10.60
2019-03-03T09:52:46.944Z,10.60
2019-03-03T09:55:27.802Z,10.60
2019-03-03T09:58:18.698Z,10.60
2019-03-03T10:01:07.869Z,10.60
2019-03-03T10:04:10.922Z,10.60
2019-03-03T10:06:46.224Z,10.60
2019-03-03T10:09:40.992Z,10.70
2019-03-03T10:12:21.245Z,10.70
2019-03-03T10:15:14.212Z,10.70
2019-03-03T10:17:58.268Z,10.70
2019-03-03T10:20:45.071Z,10.70
2019-03-03T10:23:38.938Z,10.70
2019-03-03T10:26:25.385Z,10.70
2019-03-03T10:29:07.099Z,10.70
2019-03-03T10:31:53.739Z,10.70
2019-03-03T10:34:33.575Z,10.80
2019-03-03T10:37:11.202Z,10.80
2019-03-03T10:39:58.358Z,10.80
2019-03-03T10:42:49.711Z,10.80
2019-03-03T10:45:43.686Z,10.80
2019-03-03T10:48:26.073Z,10.90
2019-03-03T10:51:13.420Z,10.90
2019-03-03T10:54:01.367Z,10.90
2019-03-03T10:56:38.483Z,10.90
2019-03-03T10:59:21.743Z,10.90
2019-03-03T11:02:12.587Z,10.90
2019-03-03T11:04:50.570Z,10.90
2019-03-03T11:07:38.539Z,10.90
2019-03-03T11:10:17.292Z,10.90
2019-03-03T11:12:56.310Z,11.00
2019-03-03T11:15:46.566Z,11.00
2019-03-03T11:18:33.765Z,11.00
2019-03-03T11:21:24.270Z,11.00
2019-03-03T11:23:59.430Z,11.10
2019-03-03T11:26:38.517Z,11.10
2019-03-03T11:29:21.110Z,11.10
2019-03-03T11:32:11.681Z,11.10
2019-03-03T11:35:04.457Z,11.10
2019-03-03T11:38:10.664Z,11.10
2019-03-03T11:40:47.007Z,11.10
2019-03-03T11:43:30.710Z,11.10
2019-03-03T11:46:24.759Z,11.10
2019-03-03T11:49:12.924Z,11.10
2019-03-03T11:52:09.947Z,11.10
2019-03-03T11:55:01.240Z,11.10
2019-03-03T11:57:39.590Z,11.10
2019-03-03T12:00:37.071Z,11.20
2019-03-03T12:03:23.448Z,11.20
2019-03-03T12:06:10.079Z,11.20
2019-03-03T12:08:48.977Z,11.20
2019-03-03T12:11:35.482Z,11.20
2019-03-03T12:14:24.069Z,11.20
2019-03-03T12:17:02.136Z,11.20
2019-03-03T12:19:36.418Z,11.20
2019-03-03T12:22:31.453Z,11.30
2019-03-03T12:25:11.608Z,11.30
2019-03-03T12:27:59.482Z,11.30
2019-03-03T12:30:50.212Z,11.30
2019-03-03T12:33:24.833Z,11.40
2019-03-03T12:36:15.401Z,11.40
2019-03-03T12:39:06.073Z,11.40
2019-03-03T12:41:53.330Z,11.50
2019-03-03T12:44:27.146Z,11.50
2019-03-03T12:47:17.997Z,11.50
2019-03-03T12:50:05.042Z,11.50
2019-03-03T12:52:59.319Z,11.50
2019-03-03T12:55:45.847Z,11.50
2019-03-03T12:58:36.845Z,11.40
2019-03-03T13:01:29.936Z,11.40
2019-03-03T13:04:17.914Z,11.40
2019-03-03T13:07:08.624Z,11.40
2019-03-03T13:10:04.430Z,11.40
2019-03-03T13:12:45.035Z,11.40
2019-03-03T13:15:26.324Z,11.40
2019-03-03T13:18:05.397Z,11.40
2019-03-03T13:20:40.545Z,11.40
2019-03-03T13:23:21.809Z,11.40
2019-03-03T13:25:57.500Z,11.40
2019-03-03T13:29:00.827Z,11.40
2019-03-03T13:31:57.452Z,11.40
2019-03-03T13:34:44.283Z,11.40
2019-03-03T13:37:36.781Z,11.40
2019-03-03T13:40:16.392Z,11.30
2019-03-03T13:42:55.363Z,11.30
2019-03-03T13:45:25.671Z,11.30
2019-03-03T13:47:54.661Z,11.30
2019-03-03T13:50:24.031Z,11.30
2019-03-03T13:52:52.840Z,11.30
2019-03-03T13:55:21.846Z,11.30
2019-03-03T13:57:50.763Z,11.30
2019-03-03T14:00:21.195Z,11.30
2019-03-03T14:02:50.344Z,11.20
2019-03-03T14:05:21.374Z,11.30
2019-03-03T14:07:50.653Z,11.30
2019-03-03T14:10:19.671Z,11.30
2019-03-03T14:12:48.573Z,11.30
2019-03-03T14:15:18.362Z,11.30
2019-03-03T14:17:47.284Z,11.30
2019-03-03T14:20:18.864Z,11.30
2019-03-03T14:22:48.964Z,11.30
2019-03-03T14:25:18.045Z,11.30
2019-03-03T14:27:47.188Z,11.30
2019-03-03T14:30:18.088Z,11.40
2019-03-03T14:32:47.131Z,11.40
2019-03-03T14:35:16.427Z,11.40
2019-03-03T14:37:45.281Z,11.40
2019-03-03T14:40:15.586Z,11.40
2019-03-03T14:42:44.535Z,11.30
2019-03-03T14:45:15.269Z,11.40
2019-03-03T14:47:44.081Z,11.40
2019-03-03T14:50:13.720Z,11.30
2019-03-03T14:52:43.209Z,11.40
2019-03-03T14:55:14.065Z,11.40
2019-03-03T14:57:42.997Z,11.40
2019-03-03T15:00:22.054Z,11.40
2019-03-03T15:02:50.968Z,11.40
2019-03-03T15:05:20.095Z,11.30
2019-03-03T15:07:49.368Z,11.30
2019-03-03T15:10:18.406Z,11.30
2019-03-03T15:12:47.194Z,11.30
2019-03-03T15:15:16.909Z,11.30
2019-03-03T15:17:45.788Z,11.30
2019-03-03T15:20:15.498Z,11.30
2019-03-03T15:22:44.747Z,11.30
2019-03-03T15:25:14.913Z,11.30
2019-03-03T15:27:44.337Z,11.20
2019-03-03T15:30:16.506Z,11.20
2019-03-03T15:32:45.545Z,11.20
2019-03-03T15:35:16.260Z,11.20
2019-03-03T15:37:45.866Z,11.20
2019-03-03T15:40:15.989Z,11.20
2019-03-03T15:42:45.347Z,11.20
2019-03-03T15:45:16.929Z,11.20
2019-03-03T15:47:46.149Z,11.20
2019-03-03T15:50:16.070Z,11.20
2019-03-03T15:52:45.008Z,11.20
2019-03-03T15:55:14.208Z,11.20
2019-03-03T15:57:43.210Z,11.20
2019-03-03T16:00:14.774Z,11.20
2019-03-03T16:02:43.746Z,11.20
2019-03-03T16:05:12.862Z,11.20
2019-03-03T16:07:41.762Z,11.20
2019-03-03T16:10:11.553Z,11.20
2019-03-03T16:12:40.408Z,11.20
2019-03-03T16:15:11.005Z,11.20
2019-03-03T16:17:39.998Z,11.20
2019-03-03T16:20:10.969Z,11.20
2019-03-03T16:22:40.279Z,11.20
2019-03-03T16:25:10.664Z,11.20
2019-03-03T16:27:39.971Z,11.20
2019-03-03T16:30:11.617Z,11.20
2019-03-03T16:32:41.373Z,11.20
2019-03-03T16:35:10.571Z,11.20
2019-03-03T16:37:39.577Z,11.20
2019-03-03T16:40:11.239Z,11.20
2019-03-03T16:42:40.247Z,11.20
2019-03-03T16:45:10.273Z,11.20
2019-03-03T16:47:39.465Z,11.20
2019-03-03T16:50:10.678Z,11.20
2019-03-03T16:52:39.540Z,11.30
2019-03-03T16:55:09.979Z,11.30
2019-03-03T16:57:38.902Z,11.30
2019-03-03T17:00:10.753Z,11.30
2019-03-03T17:02:39.729Z,11.30
2019-03-03T17:05:09.534Z,11.30
2019-03-03T17:07:38.576Z,11.30
2019-03-03T17:10:08.236Z,11.30
2019-03-03T17:12:37.155Z,11.30
2019-03-03T17:15:07.283Z,11.30
2019-03-03T17:17:36.107Z,11.30
2019-03-03T17:20:06.382Z,11.30
2019-03-03T17:22:35.220Z,11.30
2019-03-03T17:25:06.490Z,11.30
2019-03-03T17:27:35.285Z,11.30
2019-03-03T17:30:04.492Z,11.30
2019-03-03T17:32:33.291Z,11.30
2019-03-03T17:35:02.094Z,11.30
2019-03-03T17:37:30.935Z,11.30
2019-03-03T17:39:59.977Z,11.30
2019-03-03T17:42:28.876Z,11.30
2019-03-03T17:44:57.642Z,11.30
2019-03-03T17:47:26.489Z,11.30
2019-03-03T17:49:55.498Z,11.30
2019-03-03T17:52:24.502Z,11.30
2019-03-03T17:54:53.294Z,11.30
2019-03-03T17:57:22.197Z,11.30
2019-03-03T17:59:51.043Z,11.40
2019-03-03T18:02:19.816Z,11.40
2019-03-03T18:04:48.714Z,11.40
2019-03-03T18:07:17.554Z,11.40
2019-03-03T18:09:46.507Z,11.40
2019-03-03T18:12:15.379Z,11.40
2019-03-03T18:14:44.207Z,11.40
2019-03-03T18:17:13.061Z,11.40
2019-03-03T18:19:41.991Z,11.50
2019-03-03T18:22:10.854Z,11.50
2019-03-03T18:24:39.733Z,11.50
2019-03-03T18:27:08.619Z,11.50
2019-03-03T18:29:37.669Z,11.50
2019-03-03T18:32:06.704Z,11.50
2019-03-03T18:34:35.614Z,11.50
2019-03-03T18:37:04.494Z,11.50
2019-03-03T18:39:33.504Z,11.50
2019-03-03T18:42:02.318Z,11.40
2019-03-03T18:44:31.083Z,11.40
2019-03-03T18:47:00.086Z,11.40
2019-03-03T18:49:29.091Z,11.40
2019-03-03T18:51:57.996Z,11.40
2019-03-03T18:54:26.777Z,11.40
2019-03-03T18:56:55.567Z,11.40
2019-03-03T18:59:24.438Z,11.40
2019-03-03T19:01:53.329Z,11.40
2019-03-03T19:04:22.141Z,11.40
2019-03-03T19:06:50.985Z,11.40
2019-03-03T19:09:21.849Z,11.40
2019-03-03T19:11:50.675Z,11.40
2019-03-03T19:14:28.082Z,11.50
2019-03-03T19:16:50.181Z,11.50
2019-03-03T19:19:19.029Z,11.50
2019-03-03T19:21:47.914Z,11.50
2019-03-03T19:24:16.719Z,11.50
2019-03-03T19:26:45.538Z,11.50
2019-03-03T19:29:14.411Z,11.50
2019-03-03T19:31:43.362Z,11.40
2019-03-03T19:34:12.250Z,11.40
2019-03-03T19:36:41.175Z,11.40
2019-03-03T19:39:11.812Z,11.40
2019-03-03T19:41:40.714Z,11.30
2019-03-03T19:44:11.225Z,11.30
2019-03-03T19:46:40.347Z,11.30
2019-03-03T19:49:10.387Z,11.30
2019-03-03T19:51:39.393Z,11.40
2019-03-03T19:54:08.413Z,11.40
2019-03-03T19:56:37.309Z,11.40
2019-03-03T19:59:06.486Z,11.40
2019-03-03T20:01:35.342Z,11.40
2019-03-03T20:04:04.276Z,11.50
2019-03-03T20:06:33.041Z,11.50
2019-03-03T20:09:01.941Z,11.50
2019-03-03T20:11:30.769Z,11.60
2019-03-03T20:13:59.703Z,11.60
2019-03-03T20:16:28.598Z,11.60
2019-03-03T20:18:57.503Z,11.50
2019-03-03T20:21:26.341Z,11.50
2019-03-03T20:23:55.184Z,11.50
2019-03-03T20:26:24.012Z,11.40
2019-03-03T20:28:53.144Z,11.40
2019-03-03T20:31:22.044Z,11.40
2019-03-03T20:33:50.907Z,11.40
2019-03-03T20:36:19.730Z,11.40
2019-03-03T20:38:48.641Z,11.40
2019-03-03T20:41:17.452Z,11.50
2019-03-03T20:43:46.293Z,11.50
2019-03-03T20:46:15.138Z,11.50
2019-03-03T20:48:44.162Z,11.50
2019-03-03T20:51:13.048Z,11.60
2019-03-03T20:53:41.842Z,11.60
2019-03-03T20:56:10.656Z,11.70
2019-03-03T20:58:39.547Z,11.70
2019-03-03T21:01:08.433Z,11.70
2019-03-03T21:03:37.253Z,11.70
2019-03-03T21:06:06.083Z,11.70
2019-03-03T21:08:35.150Z,11.70
2019-03-03T21:11:04.059Z,11.70
2019-03-03T21:13:32.868Z,11.80
2019-03-03T21:16:01.668Z,11.80
2019-03-03T21:18:30.731Z,11.80
2019-03-03T21:20:59.596Z,11.80
2019-03-03T21:23:28.440Z,11.80
2019-03-03T21:25:57.415Z,11.80
2019-03-03T21:28:26.436Z,11.90
2019-03-03T21:30:55.205Z,11.90
2019-03-03T21:33:24.110Z,11.90
2019-03-03T21:35:52.908Z,11.90
2019-03-03T21:38:21.774Z,11.90
2019-03-03T21:40:50.588Z,11.90
2019-03-03T21:43:20.946Z,11.90
2019-03-03T21:45:50.100Z,11.90
2019-03-03T21:48:18.966Z,11.90
2019-03-03T21:50:47.957Z,12.00
2019-03-03T21:53:16.752Z,12.00
2019-03-03T21:55:45.576Z,12.00
2019-03-03T21:58:14.759Z,12.00
2019-03-03T22:00:43.749Z,12.00
2019-03-03T22:03:12.718Z,12.00
2019-03-03T22:05:41.521Z,12.00
2019-03-03T22:08:11.591Z,12.10
2019-03-03T22:10:40.423Z,12.10
2019-03-03T22:13:11.282Z,12.10
2019-03-03T22:15:40.095Z,12.00
2019-03-03T22:18:09.101Z,12.00
2019-03-03T22:20:37.969Z,12.00
2019-03-03T22:23:06.944Z,12.00
2019-03-03T22:25:35.912Z,12.00
2019-03-03T22:28:05.155Z,12.00
2019-03-03T22:30:33.985Z,12.00
2019-03-03T22:33:02.887Z,12.00
2019-03-03T22:35:32.007Z,11.90
2019-03-03T22:38:00.936Z,11.90
2019-03-03T22:40:29.794Z,12.00
2019-03-03T22:42:58.620Z,12.00
2019-03-03T22:45:27.467Z,12.00
2019-03-03T22:47:56.440Z,12.00
2019-03-03T22:50:25.217Z,12.00
2019-03-03T22:52:54.021Z,12.00
2019-03-03T22:55:23.003Z,12.00
2019-03-03T22:57:52.062Z,12.00
2019-03-03T23:00:29.738Z,12.00
2019-03-03T23:02:58.631Z,12.00
2019-03-03T23:05:38.767Z,12.10
2019-03-03T23:08:31.761Z,12.10
2019-03-03T23:11:35.393Z,12.10
2019-03-03T23:14:24.678Z,12.10
2019-03-03T23:17:45.594Z,12.20
2019-03-03T23:20:49.411Z,12.20
2019-03-03T23:23:59.060Z,12.10
2019-03-03T23:26:27.891Z,12.10
2019-03-03T23:28:56.923Z,12.10
2019-03-03T23:31:25.670Z,12.20
2019-03-03T23:33:54.463Z,12.20
2019-03-03T23:36:23.272Z,12.20
2019-03-03T23:38:53.335Z,12.30
2019-03-03T23:41:22.141Z,12.30
2019-03-03T23:43:51.025Z,12.20
2019-03-03T23:46:19.838Z,12.20
2019-03-03T23:48:48.842Z,12.30
2019-03-03T23:51:17.613Z,12.30
2019-03-03T23:53:46.419Z,12.30
2019-03-03T23:56:15.279Z,12.30
2019-03-03T23:58:44.221Z,12.30
